sensor_id;sensor_type;location;lat;lon;timestamp;pressure;altitude;pressure_sealevel;temperature;humidity
65880;BME280;52661;51.364;6.054;2024-02-21T00:01:16;101948.63;;;8.90;100.00
65880;BME280;52661;51.364;6.054;2024-02-21T00:03:41;101946.91;;;8.98;100.00
65880;BME280;52661;51.364;6.054;2024-02-21T00:06:07;101936.78;;;8.95;100.00
65880;BME280;52661;51.364;6.054;2024-02-21T00:08:32;101949.19;;;8.96;100.00
65880;BME280;52661;51.364;6.054;2024-02-21T00:10:57;101944.03;;;8.91;100.00
65880;BME280;52661;51.364;6.054;2024-02-21T00:13:23;101933.72;;;8.97;100.00
65880;BME280;52661;51.364;6.054;2024-02-21T00:15:48;101918.16;;;8.94;100.00
65880;BME280;52661;51.364;6.054;2024-02-21T00:18:13;101910.41;;;8.92;100.00
65880;BME280;52661;51.364;6.054;2024-02-21T00:20:39;101912.66;;;8.90;100.00
65880;BME280;52661;51.364;6.054;2024-02-21T00:23:04;101923.94;;;8.92;100.00
65880;BME280;52661;51.364;6.054;2024-02-21T00:25:29;101925.06;;;8.91;100.00
65880;BME280;52661;51.364;6.054;2024-02-21T00:27:55;101919.66;;;8.91;100.00
65880;BME280;52661;51.364;6.054;2024-02-21T00:30:20;101927.88;;;8.95;100.00
65880;BME280;52661;51.364;6.054;2024-02-21T00:32:46;101912.56;;;8.86;100.00
65880;BME280;52661;51.364;6.054;2024-02-21T00:35:11;101912.22;;;8.88;100.00
65880;BME280;52661;51.364;6.054;2024-02-21T00:37:37;101917.31;;;8.89;100.00
65880;BME280;52661;51.364;6.054;2024-02-21T00:40:03;101909.59;;;8.92;100.00
65880;BME280;52661;51.364;6.054;2024-02-21T00:42:28;101904.19;;;8.92;100.00
65880;BME280;52661;51.364;6.054;2024-02-21T00:44:53;101910.81;;;8.94;100.00
65880;BME280;52661;51.364;6.054;2024-02-21T00:47:19;101903.31;;;8.87;100.00
65880;BME280;52661;51.364;6.054;2024-02-21T00:49:44;101911.09;;;8.89;100.00
65880;BME280;52661;51.364;6.054;2024-02-21T00:52:09;101908.31;;;8.85;100.00
65880;BME280;52661;51.364;6.054;2024-02-21T00:54:35;101904.53;;;8.90;100.00
65880;BME280;52661;51.364;6.054;2024-02-21T00:57:00;101898.44;;;8.93;100.00
65880;BME280;52661;51.364;6.054;2024-02-21T00:59:25;101892.94;;;8.89;100.00
65880;BME280;52661;51.364;6.054;2024-02-21T01:01:51;101892.47;;;8.87;100.00
65880;BME280;52661;51.364;6.054;2024-02-21T01:04:16;101876.69;;;8.89;100.00
65880;BME280;52661;51.364;6.054;2024-02-21T01:06:41;101880.63;;;8.92;100.00
65880;BME280;52661;51.364;6.054;2024-02-21T01:09:09;101882.53;;;8.92;100.00
65880;BME280;52661;51.364;6.054;2024-02-21T01:11:34;101885.00;;;8.97;100.00
65880;BME280;52661;51.364;6.054;2024-02-21T01:14:00;101858.69;;;8.97;100.00
65880;BME280;52661;51.364;6.054;2024-02-21T01:16:25;101859.91;;;9.00;100.00
65880;BME280;52661;51.364;6.054;2024-02-21T01:18:51;101860.16;;;8.95;100.00
65880;BME280;52661;51.364;6.054;2024-02-21T01:21:16;101851.72;;;8.96;100.00
65880;BME280;52661;51.364;6.054;2024-02-21T01:23:41;101854.06;;;8.98;100.00
65880;BME280;52661;51.364;6.054;2024-02-21T01:26:07;101867.25;;;8.99;100.00
65880;BME280;52661;51.364;6.054;2024-02-21T01:28:34;101854.13;;;9.01;100.00
65880;BME280;52661;51.364;6.054;2024-02-21T01:30:59;101865.69;;;8.98;100.00
65880;BME280;52661;51.364;6.054;2024-02-21T01:33:25;101868.03;;;9.00;100.00
65880;BME280;52661;51.364;6.054;2024-02-21T01:35:50;101851.81;;;9.00;100.00
65880;BME280;52661;51.364;6.054;2024-02-21T01:38:16;101850.31;;;9.02;100.00
65880;BME280;52661;51.364;6.054;2024-02-21T01:40:41;101843.31;;;9.01;100.00
65880;BME280;52661;51.364;6.054;2024-02-21T01:43:17;101838.59;;;8.98;100.00
65880;BME280;52661;51.364;6.054;2024-02-21T01:45:48;101840.97;;;9.00;100.00
65880;BME280;52661;51.364;6.054;2024-02-21T01:48:14;101837.13;;;9.01;100.00
65880;BME280;52661;51.364;6.054;2024-02-21T01:50:40;101820.00;;;8.97;100.00
65880;BME280;52661;51.364;6.054;2024-02-21T01:53:06;101809.59;;;8.99;100.00
65880;BME280;52661;51.364;6.054;2024-02-21T01:55:32;101790.97;;;8.97;100.00
65880;BME280;52661;51.364;6.054;2024-02-21T01:57:57;101796.06;;;8.99;100.00
65880;BME280;52661;51.364;6.054;2024-02-21T02:00:24;101800.78;;;9.02;100.00
65880;BME280;52661;51.364;6.054;2024-02-21T02:02:49;101799.22;;;9.01;100.00
65880;BME280;52661;51.364;6.054;2024-02-21T02:05:16;101807.94;;;8.94;100.00
65880;BME280;52661;51.364;6.054;2024-02-21T02:07:43;101808.81;;;8.98;100.00
65880;BME280;52661;51.364;6.054;2024-02-21T02:10:09;101816.16;;;8.98;100.00
65880;BME280;52661;51.364;6.054;2024-02-21T02:12:35;101815.81;;;8.99;100.00
65880;BME280;52661;51.364;6.054;2024-02-21T02:15:02;101822.72;;;8.97;100.00
65880;BME280;52661;51.364;6.054;2024-02-21T02:17:30;101808.03;;;8.98;100.00
65880;BME280;52661;51.364;6.054;2024-02-21T02:19:55;101818.06;;;8.97;100.00
65880;BME280;52661;51.364;6.054;2024-02-21T02:22:24;101817.72;;;8.99;100.00
65880;BME280;52661;51.364;6.054;2024-02-21T02:24:53;101813.00;;;8.96;100.00
65880;BME280;52661;51.364;6.054;2024-02-21T02:27:18;101801.06;;;8.97;100.00
65880;BME280;52661;51.364;6.054;2024-02-21T02:29:47;101806.88;;;8.99;100.00
65880;BME280;52661;51.364;6.054;2024-02-21T02:32:12;101809.59;;;8.99;100.00
65880;BME280;52661;51.364;6.054;2024-02-21T02:34:38;101798.44;;;9.00;100.00
65880;BME280;52661;51.364;6.054;2024-02-21T02:37:03;101797.28;;;9.01;100.00
65880;BME280;52661;51.364;6.054;2024-02-21T02:39:28;101795.63;;;8.97;100.00
65880;BME280;52661;51.364;6.054;2024-02-21T02:41:54;101782.44;;;8.95;100.00
65880;BME280;52661;51.364;6.054;2024-02-21T02:44:19;101783.22;;;8.96;100.00
65880;BME280;52661;51.364;6.054;2024-02-21T02:46:44;101770.41;;;8.93;100.00
65880;BME280;52661;51.364;6.054;2024-02-21T02:49:10;101770.03;;;8.94;100.00
65880;BME280;52661;51.364;6.054;2024-02-21T02:51:36;101760.94;;;8.86;100.00
65880;BME280;52661;51.364;6.054;2024-02-21T02:54:02;101765.41;;;8.95;100.00
65880;BME280;52661;51.364;6.054;2024-02-21T02:56:28;101762.28;;;8.93;100.00
65880;BME280;52661;51.364;6.054;2024-02-21T02:58:53;101757.91;;;8.88;100.00
65880;BME280;52661;51.364;6.054;2024-02-21T03:01:19;101761.03;;;8.90;100.00
65880;BME280;52661;51.364;6.054;2024-02-21T03:03:44;101752.50;;;8.88;100.00
65880;BME280;52661;51.364;6.054;2024-02-21T03:06:12;101741.16;;;8.82;100.00
65880;BME280;52661;51.364;6.054;2024-02-21T03:08:37;101747.06;;;8.88;100.00
65880;BME280;52661;51.364;6.054;2024-02-21T03:11:03;101735.75;;;8.82;100.00
65880;BME280;52661;51.364;6.054;2024-02-21T03:13:28;101744.03;;;8.89;100.00
65880;BME280;52661;51.364;6.054;2024-02-21T03:15:53;101740.09;;;8.87;100.00
65880;BME280;52661;51.364;6.054;2024-02-21T03:18:19;101731.97;;;8.87;100.00
65880;BME280;52661;51.364;6.054;2024-02-21T03:20:44;101731.16;;;8.86;100.00
65880;BME280;52661;51.364;6.054;2024-02-21T03:23:09;101724.22;;;8.85;100.00
65880;BME280;52661;51.364;6.054;2024-02-21T03:25:35;101725.69;;;8.83;100.00
65880;BME280;52661;51.364;6.054;2024-02-21T03:28:00;101712.84;;;8.80;100.00
65880;BME280;52661;51.364;6.054;2024-02-21T03:30:27;101719.84;;;8.81;100.00
65880;BME280;52661;51.364;6.054;2024-02-21T03:32:52;101712.44;;;8.78;100.00
65880;BME280;52661;51.364;6.054;2024-02-21T03:35:17;101713.72;;;8.84;100.00
65880;BME280;52661;51.364;6.054;2024-02-21T03:37:45;101705.00;;;8.75;100.00
65880;BME280;52661;51.364;6.054;2024-02-21T03:40:11;101714.34;;;8.77;100.00
65880;BME280;52661;51.364;6.054;2024-02-21T03:42:37;101706.66;;;8.79;100.00
65880;BME280;52661;51.364;6.054;2024-02-21T03:45:03;101701.22;;;8.79;100.00
65880;BME280;52661;51.364;6.054;2024-02-21T03:47:29;101695.75;;;8.76;100.00
65880;BME280;52661;51.364;6.054;2024-02-21T03:49:54;101687.28;;;8.77;100.00
65880;BME280;52661;51.364;6.054;2024-02-21T03:52:20;101674.44;;;8.74;100.00
65880;BME280;52661;51.364;6.054;2024-02-21T03:54:45;101672.94;;;8.77;100.00
65880;BME280;52661;51.364;6.054;2024-02-21T03:57:10;101678.72;;;8.75;100.00
65880;BME280;52661;51.364;6.054;2024-02-21T03:59:36;101664.03;;;8.76;100.00
65880;BME280;52661;51.364;6.054;2024-02-21T04:02:01;101661.72;;;8.75;100.00
65880;BME280;52661;51.364;6.054;2024-02-21T04:04:29;101665.97;;;8.76;100.00
65880;BME280;52661;51.364;6.054;2024-02-21T04:06:54;101667.38;;;8.70;100.00
65880;BME280;52661;51.364;6.054;2024-02-21T04:09:19;101666.41;;;8.78;100.00
65880;BME280;52661;51.364;6.054;2024-02-21T04:11:45;101658.63;;;8.76;100.00
65880;BME280;52661;51.364;6.054;2024-02-21T04:14:10;101654.78;;;8.77;100.00
65880;BME280;52661;51.364;6.054;2024-02-21T04:16:39;101652.81;;;8.74;100.00
65880;BME280;52661;51.364;6.054;2024-02-21T04:19:04;101664.41;;;8.75;100.00
65880;BME280;52661;51.364;6.054;2024-02-21T04:21:29;101647.72;;;8.73;100.00
65880;BME280;52661;51.364;6.054;2024-02-21T04:23:55;101658.63;;;8.76;100.00
65880;BME280;52661;51.364;6.054;2024-02-21T04:26:20;101664.41;;;8.75;100.00
65880;BME280;52661;51.364;6.054;2024-02-21T04:28:45;101656.22;;;8.71;100.00
65880;BME280;52661;51.364;6.054;2024-02-21T04:31:11;101669.38;;;8.73;100.00
65880;BME280;52661;51.364;6.054;2024-02-21T04:33:36;101669.81;;;8.75;100.00
65880;BME280;52661;51.364;6.054;2024-02-21T04:36:02;101675.16;;;8.71;100.00
65880;BME280;52661;51.364;6.054;2024-02-21T04:38:27;101661.00;;;8.78;100.00
65880;BME280;52661;51.364;6.054;2024-02-21T04:40:54;101674.78;;;8.73;100.00
65880;BME280;52661;51.364;6.054;2024-02-21T04:43:19;101669.81;;;8.75;100.00
65880;BME280;52661;51.364;6.054;2024-02-21T04:45:45;101662.84;;;8.74;100.00
65880;BME280;52661;51.364;6.054;2024-02-21T04:48:10;101665.88;;;8.72;100.00
65880;BME280;52661;51.364;6.054;2024-02-21T04:50:36;101659.41;;;8.77;100.00
65880;BME280;52661;51.364;6.054;2024-02-21T04:53:02;101670.25;;;8.77;100.00
65880;BME280;52661;51.364;6.054;2024-02-21T04:55:27;101665.53;;;8.74;100.00
65880;BME280;52661;51.364;6.054;2024-02-21T04:57:52;101667.81;;;8.72;100.00
65880;BME280;52661;51.364;6.054;2024-02-21T05:00:19;101659.59;;;8.68;100.00
65880;BME280;52661;51.364;6.054;2024-02-21T05:02:44;101658.56;;;8.73;100.00
65880;BME280;52661;51.364;6.054;2024-02-21T05:05:09;101666.88;;;8.64;100.00
65880;BME280;52661;51.364;6.054;2024-02-21T05:07:35;101667.63;;;8.65;100.00
65880;BME280;52661;51.364;6.054;2024-02-21T05:10:00;101661.38;;;8.61;100.00
65880;BME280;52661;51.364;6.054;2024-02-21T05:12:26;101657.19;;;8.63;100.00
65880;BME280;52661;51.364;6.054;2024-02-21T05:14:51;101655.97;;;8.61;100.00
65880;BME280;52661;51.364;6.054;2024-02-21T05:17:16;101657.09;;;8.60;100.00
65880;BME280;52661;51.364;6.054;2024-02-21T05:19:42;101644.38;;;8.60;100.00
65880;BME280;52661;51.364;6.054;2024-02-21T05:22:07;101643.22;;;8.61;100.00
65880;BME280;52661;51.364;6.054;2024-02-21T05:24:32;101645.16;;;8.61;100.00
65880;BME280;52661;51.364;6.054;2024-02-21T05:26:58;101637.88;;;8.65;100.00
65880;BME280;52661;51.364;6.054;2024-02-21T05:29:23;101636.66;;;8.62;100.00
65880;BME280;52661;51.364;6.054;2024-02-21T05:34:17;101632.75;;;8.60;100.00
65880;BME280;52661;51.364;6.054;2024-02-21T05:36:43;101644.88;;;8.66;100.00
65880;BME280;52661;51.364;6.054;2024-02-21T05:39:09;101643.56;;;8.60;100.00
65880;BME280;52661;51.364;6.054;2024-02-21T05:41:34;101643.91;;;8.58;100.00
65880;BME280;52661;51.364;6.054;2024-02-21T05:43:59;101628.47;;;8.59;100.00
65880;BME280;52661;51.364;6.054;2024-02-21T05:46:25;101621.41;;;8.54;100.00
65880;BME280;52661;51.364;6.054;2024-02-21T05:48:50;101624.63;;;8.60;100.00
65880;BME280;52661;51.364;6.054;2024-02-21T05:51:15;101610.66;;;8.58;100.00
65880;BME280;52661;51.364;6.054;2024-02-21T05:53:41;101595.91;;;8.55;100.00
65880;BME280;52661;51.364;6.054;2024-02-21T05:56:13;101593.22;;;8.55;100.00
65880;BME280;52661;51.364;6.054;2024-02-21T05:58:39;101596.44;;;8.61;100.00
65880;BME280;52661;51.364;6.054;2024-02-21T06:01:04;101592.78;;;8.53;100.00
65880;BME280;52661;51.364;6.054;2024-02-21T06:03:32;101596.00;;;8.59;100.00
65880;BME280;52661;51.364;6.054;2024-02-21T06:05:58;101596.44;;;8.61;100.00
65880;BME280;52661;51.364;6.054;2024-02-21T06:08:23;101587.81;;;8.55;100.00
65880;BME280;52661;51.364;6.054;2024-02-21T06:10:48;101588.94;;;8.54;100.00
65880;BME280;52661;51.364;6.054;2024-02-21T06:13:17;101591.28;;;8.56;100.00
65880;BME280;52661;51.364;6.054;2024-02-21T06:15:42;101593.75;;;8.61;100.00
65880;BME280;52661;51.364;6.054;2024-02-21T06:18:07;101593.56;;;8.54;100.00
65880;BME280;52661;51.364;6.054;2024-02-21T06:20:33;101577.84;;;8.59;100.00
65880;BME280;52661;51.364;6.054;2024-02-21T06:23:01;101574.34;;;8.59;100.00
65880;BME280;52661;51.364;6.054;2024-02-21T06:25:26;101567.66;;;8.53;100.00
65880;BME280;52661;51.364;6.054;2024-02-21T06:27:51;101562.25;;;8.53;100.00
65880;BME280;52661;51.364;6.054;2024-02-21T06:30:17;101556.03;;;8.52;100.00
65880;BME280;52661;51.364;6.054;2024-02-21T06:32:42;101567.22;;;8.51;100.00
65880;BME280;52661;51.364;6.054;2024-02-21T06:35:07;101559.94;;;8.55;100.00
65880;BME280;52661;51.364;6.054;2024-02-21T06:37:33;101549.44;;;8.50;100.00
65880;BME280;52661;51.364;6.054;2024-02-21T06:39:59;101558.31;;;8.50;100.00
65880;BME280;52661;51.364;6.054;2024-02-21T06:42:25;101556.38;;;8.51;100.00
65880;BME280;52661;51.364;6.054;2024-02-21T06:44:50;101544.00;;;8.50;100.00
65880;BME280;52661;51.364;6.054;2024-02-21T06:47:16;101548.34;;;8.54;100.00
65880;BME280;52661;51.364;6.054;2024-02-21T06:49:41;101554.91;;;8.53;100.00
65880;BME280;52661;51.364;6.054;2024-02-21T06:52:07;101554.53;;;8.55;100.00
65880;BME280;52661;51.364;6.054;2024-02-21T06:54:32;101551.13;;;8.58;100.00
65880;BME280;52661;51.364;6.054;2024-02-21T06:56:58;101549.06;;;8.51;100.00
65880;BME280;52661;51.364;6.054;2024-02-21T06:59:23;101559.63;;;8.56;100.00
65880;BME280;52661;51.364;6.054;2024-02-21T07:01:49;101559.16;;;8.54;100.00
65880;BME280;52661;51.364;6.054;2024-02-21T07:04:15;101564.50;;;8.51;100.00
65880;BME280;52661;51.364;6.054;2024-02-21T07:06:40;101561.44;;;8.52;100.00
65880;BME280;52661;51.364;6.054;2024-02-21T07:09:06;101566.94;;;8.56;100.00
65880;BME280;52661;51.364;6.054;2024-02-21T07:11:31;101564.94;;;8.53;100.00
65880;BME280;52661;51.364;6.054;2024-02-21T07:13:56;101560.75;;;8.55;100.00
65880;BME280;52661;51.364;6.054;2024-02-21T07:16:21;101559.53;;;8.53;100.00
65880;BME280;52661;51.364;6.054;2024-02-21T07:18:47;101559.16;;;8.54;100.00
65880;BME280;52661;51.364;6.054;2024-02-21T07:21:12;101558.56;;;8.61;100.00
65880;BME280;52661;51.364;6.054;2024-02-21T07:23:41;101559.16;;;8.54;100.00
65880;BME280;52661;51.364;6.054;2024-02-21T07:26:07;101541.94;;;8.62;100.00
65880;BME280;52661;51.364;6.054;2024-02-21T07:28:32;101543.38;;;8.56;100.00
65880;BME280;52661;51.364;6.054;2024-02-21T07:30:59;101543.53;;;8.63;100.00
65880;BME280;52661;51.364;6.054;2024-02-21T07:33:25;101550.84;;;8.63;100.00
65880;BME280;52661;51.364;6.054;2024-02-21T07:35:50;101541.16;;;8.62;100.00
65880;BME280;52661;51.364;6.054;2024-02-21T07:38:15;101534.88;;;8.58;100.00
65880;BME280;52661;51.364;6.054;2024-02-21T07:40:44;101540.03;;;8.63;100.00
65880;BME280;52661;51.364;6.054;2024-02-21T07:43:09;101528.19;;;8.52;100.00
65880;BME280;52661;51.364;6.054;2024-02-21T07:45:35;101529.41;;;8.54;100.00
65880;BME280;52661;51.364;6.054;2024-02-21T07:48:00;101536.38;;;8.55;100.00
65880;BME280;52661;51.364;6.054;2024-02-21T07:50:26;101527.94;;;8.57;100.00
65880;BME280;52661;51.364;6.054;2024-02-21T07:52:52;101520.88;;;8.52;100.00
65880;BME280;52661;51.364;6.054;2024-02-21T07:55:17;101516.81;;;8.62;100.00
65880;BME280;52661;51.364;6.054;2024-02-21T07:57:42;101507.41;;;8.56;100.00
65880;BME280;52661;51.364;6.054;2024-02-21T08:00:08;101511.69;;;8.57;100.00
65880;BME280;52661;51.364;6.054;2024-02-21T08:02:35;101498.84;;;8.54;100.00
65880;BME280;52661;51.364;6.054;2024-02-21T08:05:01;101496.53;;;8.52;100.00
65880;BME280;52661;51.364;6.054;2024-02-21T08:07:26;101492.31;;;8.55;100.00
65880;BME280;52661;51.364;6.054;2024-02-21T08:09:54;101484.56;;;8.53;100.00
65880;BME280;52661;51.364;6.054;2024-02-21T08:12:19;101474.81;;;8.49;100.00
65880;BME280;52661;51.364;6.054;2024-02-21T08:14:44;101475.53;;;8.46;100.00
65880;BME280;52661;51.364;6.054;2024-02-21T08:17:10;101476.22;;;8.43;100.00
65880;BME280;52661;51.364;6.054;2024-02-21T08:19:35;101467.66;;;8.40;100.00
65880;BME280;52661;51.364;6.054;2024-02-21T08:22:00;101482.47;;;8.47;100.00
65880;BME280;52661;51.364;6.054;2024-02-21T08:24:26;101466.09;;;8.39;100.00
65880;BME280;52661;51.364;6.054;2024-02-21T08:26:51;101468.03;;;8.39;100.00
65880;BME280;52661;51.364;6.054;2024-02-21T08:29:16;101458.84;;;8.44;100.00
65880;BME280;52661;51.364;6.054;2024-02-21T08:31:42;101457.50;;;8.34;100.00
65880;BME280;52661;51.364;6.054;2024-02-21T08:34:07;101451.97;;;8.46;100.00
65880;BME280;52661;51.364;6.054;2024-02-21T08:36:34;101452.16;;;8.57;100.00
65880;BME280;52661;51.364;6.054;2024-02-21T08:39:00;101447.53;;;8.57;100.00
65880;BME280;52661;51.364;6.054;2024-02-21T08:41:25;101443.69;;;8.58;100.00
65880;BME280;52661;51.364;6.054;2024-02-21T08:43:52;101446.88;;;8.45;100.00
65880;BME280;52661;51.364;6.054;2024-02-21T08:46:17;101441.88;;;8.47;100.00
65880;BME280;52661;51.364;6.054;2024-02-21T08:48:43;101427.53;;;8.43;100.00
65880;BME280;52661;51.364;6.054;2024-02-21T08:51:11;101438.34;;;8.43;100.00
65880;BME280;52661;51.364;6.054;2024-02-21T08:53:37;101441.34;;;8.37;100.00
65880;BME280;52661;51.364;6.054;2024-02-21T08:56:03;101421.88;;;8.32;100.00
65880;BME280;52661;51.364;6.054;2024-02-21T08:58:29;101420.09;;;8.39;100.00
65880;BME280;52661;51.364;6.054;2024-02-21T09:00:54;101420.75;;;8.33;100.00
65880;BME280;52661;51.364;6.054;2024-02-21T09:03:19;101425.81;;;8.34;100.00
65880;BME280;52661;51.364;6.054;2024-02-21T09:05:46;101407.16;;;8.29;100.00
65880;BME280;52661;51.364;6.054;2024-02-21T09:08:11;101415.72;;;8.31;100.00
65880;BME280;52661;51.364;6.054;2024-02-21T09:10:37;101397.34;;;8.40;100.00
65880;BME280;52661;51.364;6.054;2024-02-21T09:13:02;101402.41;;;8.42;100.00
65880;BME280;52661;51.364;6.054;2024-02-21T09:15:29;101391.59;;;8.42;100.00
65880;BME280;52661;51.364;6.054;2024-02-21T09:17:54;101384.53;;;8.37;100.00
65880;BME280;52661;51.364;6.054;2024-02-21T09:20:19;101391.53;;;8.38;100.00
65880;BME280;52661;51.364;6.054;2024-02-21T09:22:45;101392.72;;;8.41;100.00
65880;BME280;52661;51.364;6.054;2024-02-21T09:25:10;101384.53;;;8.37;100.00
65880;BME280;52661;51.364;6.054;2024-02-21T09:27:38;101370.44;;;8.48;100.00
65880;BME280;52661;51.364;6.054;2024-02-21T09:30:04;101367.31;;;8.46;100.00
65880;BME280;52661;51.364;6.054;2024-02-21T09:32:30;101372.47;;;8.54;100.00
65880;BME280;52661;51.364;6.054;2024-02-21T09:34:55;101372.66;;;8.65;100.00
65880;BME280;52661;51.364;6.054;2024-02-21T09:37:21;101364.22;;;8.66;100.00
65880;BME280;52661;51.364;6.054;2024-02-21T09:39:46;101371.19;;;8.67;100.00
65880;BME280;52661;51.364;6.054;2024-02-21T09:42:14;101376.16;;;8.65;100.00
65880;BME280;52661;51.364;6.054;2024-02-21T09:44:43;101376.00;;;8.77;100.00
65880;BME280;52661;51.364;6.054;2024-02-21T09:47:17;101368.16;;;8.72;100.00
65880;BME280;52661;51.364;6.054;2024-02-21T09:49:44;101363.19;;;8.74;100.00
65880;BME280;52661;51.364;6.054;2024-02-21T09:52:12;101359.03;;;8.80;100.00
65880;BME280;52661;51.364;6.054;2024-02-21T09:54:39;101363.66;;;8.80;100.00
65880;BME280;52661;51.364;6.054;2024-02-21T09:57:05;101348.00;;;8.89;100.00
65880;BME280;52661;51.364;6.054;2024-02-21T09:59:33;101348.34;;;8.87;100.00
65880;BME280;52661;51.364;6.054;2024-02-21T10:01:58;101350.25;;;8.87;100.00
65880;BME280;52661;51.364;6.054;2024-02-21T10:04:27;101343.75;;;8.92;100.00
65880;BME280;52661;51.364;6.054;2024-02-21T10:06:53;101347.38;;;8.99;100.00
65880;BME280;52661;51.364;6.054;2024-02-21T10:09:27;101331.47;;;8.98;100.00
65880;BME280;52661;51.364;6.054;2024-02-21T10:11:53;101327.28;;;9.00;100.00
65880;BME280;52661;51.364;6.054;2024-02-21T10:14:19;101327.41;;;9.07;100.00
65880;BME280;52661;51.364;6.054;2024-02-21T10:16:49;101308.84;;;9.09;100.00
65880;BME280;52661;51.364;6.054;2024-02-21T10:19:21;101303.31;;;9.02;100.00
65880;BME280;52661;51.364;6.054;2024-02-21T10:22:03;101300.44;;;9.14;100.00
65880;BME280;52661;51.364;6.054;2024-02-21T10:24:29;101296.94;;;9.14;100.00
65880;BME280;52661;51.364;6.054;2024-02-21T10:27:02;101296.69;;;9.22;100.00
65880;BME280;52661;51.364;6.054;2024-02-21T10:29:32;101280.44;;;9.22;100.00
65880;BME280;52661;51.364;6.054;2024-02-21T10:32:04;101268.38;;;9.20;100.00
65880;BME280;52661;51.364;6.054;2024-02-21T10:34:31;101269.59;;;9.22;100.00
65880;BME280;52661;51.364;6.054;2024-02-21T10:37:03;101267.75;;;9.30;100.00
65880;BME280;52661;51.364;6.054;2024-02-21T10:39:32;101254.59;;;9.28;100.00
65880;BME280;52661;51.364;6.054;2024-02-21T10:42:00;101250.41;;;9.34;100.00
65880;BME280;52661;51.364;6.054;2024-02-21T10:44:30;101243.41;;;9.33;100.00
65880;BME280;52661;51.364;6.054;2024-02-21T10:46:56;101235.34;;;9.37;100.00
65880;BME280;52661;51.364;6.054;2024-02-21T10:49:31;101229.16;;;9.36;100.00
65880;BME280;52661;51.364;6.054;2024-02-21T10:52:15;101212.94;;;9.40;100.00
65880;BME280;52661;51.364;6.054;2024-02-21T10:55:04;101200.59;;;9.43;100.00
65880;BME280;52661;51.364;6.054;2024-02-21T10:57:35;101196.31;;;9.42;100.00
65880;BME280;52661;51.364;6.054;2024-02-21T11:00:04;101191.72;;;9.46;100.00
65880;BME280;52661;51.364;6.054;2024-02-21T11:02:33;101180.97;;;9.53;100.00
65880;BME280;52661;51.364;6.054;2024-02-21T11:04:59;101178.34;;;9.60;100.00
65880;BME280;52661;51.364;6.054;2024-02-21T11:07:25;101166.00;;;9.66;100.00
65880;BME280;52661;51.364;6.054;2024-02-21T11:09:51;101145.50;;;9.65;100.00
65880;BME280;52661;51.364;6.054;2024-02-21T11:12:21;101136.94;;;9.63;100.00
65880;BME280;52661;51.364;6.054;2024-02-21T11:14:47;101141.25;;;9.67;100.00
65880;BME280;52661;51.364;6.054;2024-02-21T11:17:19;101132.72;;;9.65;100.00
65880;BME280;52661;51.364;6.054;2024-02-21T11:19:51;101124.25;;;9.70;100.00
65880;BME280;52661;51.364;6.054;2024-02-21T11:22:18;101118.06;;;9.73;100.00
65880;BME280;52661;51.364;6.054;2024-02-21T11:24:45;101127.41;;;9.76;100.00
65880;BME280;52661;51.364;6.054;2024-02-21T11:27:15;101130.53;;;9.78;100.00
65880;BME280;52661;51.364;6.054;2024-02-21T11:29:44;101134.38;;;9.77;100.00
65880;BME280;52661;51.364;6.054;2024-02-21T11:32:10;101138.34;;;9.86;100.00
65880;BME280;52661;51.364;6.054;2024-02-21T11:34:39;101134.41;;;9.80;100.00
65880;BME280;52661;51.364;6.054;2024-02-21T11:37:14;101134.84;;;9.82;100.00
65880;BME280;52661;51.364;6.054;2024-02-21T11:39:42;101110.81;;;9.84;100.00
65880;BME280;52661;51.364;6.054;2024-02-21T11:42:08;101098.84;;;9.85;100.00
65880;BME280;52661;51.364;6.054;2024-02-21T11:44:38;101110.50;;;9.89;100.00
65880;BME280;52661;51.364;6.054;2024-02-21T11:47:07;101092.38;;;10.01;100.00
65880;BME280;52661;51.364;6.054;2024-02-21T11:49:36;101088.47;;;9.95;100.00
65880;BME280;52661;51.364;6.054;2024-02-21T11:52:03;101090.81;;;10.00;100.00
65880;BME280;52661;51.364;6.054;2024-02-21T11:54:32;101075.66;;;9.95;100.00
65880;BME280;52661;51.364;6.054;2024-02-21T11:56:58;101069.94;;;10.04;100.00
65880;BME280;52661;51.364;6.054;2024-02-21T11:59:24;101052.22;;;10.17;100.00
65880;BME280;52661;51.364;6.054;2024-02-21T12:01:49;101058.50;;;10.28;100.00
65880;BME280;52661;51.364;6.054;2024-02-21T12:04:17;101057.44;;;10.40;100.00
65880;BME280;52661;51.364;6.054;2024-02-21T12:06:45;101040.84;;;10.55;100.00
65880;BME280;52661;51.364;6.054;2024-02-21T12:09:14;101040.06;;;10.51;100.00
65880;BME280;52661;51.364;6.054;2024-02-21T12:11:39;101023.00;;;10.54;100.00
65880;BME280;52661;51.364;6.054;2024-02-21T12:14:05;101011.84;;;10.70;100.00
65880;BME280;52661;51.364;6.054;2024-02-21T12:16:33;101020.41;;;10.79;100.00
65880;BME280;52661;51.364;6.054;2024-02-21T12:18:59;101017.28;;;10.73;100.00
65880;BME280;52661;51.364;6.054;2024-02-21T12:21:34;101011.47;;;10.78;100.00
65880;BME280;52661;51.364;6.054;2024-02-21T12:24:15;101001.78;;;10.77;100.00
65880;BME280;52661;51.364;6.054;2024-02-21T12:26:41;101000.25;;;10.80;100.00
65880;BME280;52661;51.364;6.054;2024-02-21T12:29:07;100997.56;;;10.87;100.00
65880;BME280;52661;51.364;6.054;2024-02-21T12:31:37;100994.84;;;10.87;100.00
65880;BME280;52661;51.364;6.054;2024-02-21T12:34:03;100984.31;;;10.75;100.00
65880;BME280;52661;51.364;6.054;2024-02-21T12:36:29;100982.41;;;10.82;100.00
65880;BME280;52661;51.364;6.054;2024-02-21T12:38:55;100937.47;;;10.99;100.00
65880;BME280;52661;51.364;6.054;2024-02-21T12:41:20;100955.72;;;11.09;100.00
65880;BME280;52661;51.364;6.054;2024-02-21T12:43:45;100937.84;;;11.01;100.00
65880;BME280;52661;51.364;6.054;2024-02-21T12:46:12;100946.41;;;11.07;100.00
65880;BME280;52661;51.364;6.054;2024-02-21T12:48:37;100940.19;;;11.10;100.00